sensor_id;sensor_type;location;lat;lon;timestamp;pressure;altitude;pressure_sealevel;temperature;humidity
68616;BME280;57261;47.504;19.084;2022-12-22T00:02:31;100665.78;;;11.78;63.68
68616;BME280;57261;47.504;19.084;2022-12-22T00:05:52;100680.28;;;11.84;63.32
68616;BME280;57261;47.504;19.084;2022-12-22T00:09:11;100676.06;;;11.80;63.80
68616;BME280;57261;47.504;19.084;2022-12-22T00:12:30;100674.34;;;11.80;63.48
68616;BME280;57261;47.504;19.084;2022-12-22T00:15:50;100675.13;;;11.84;63.33
68616;BME280;57261;47.504;19.084;2022-12-22T00:19:12;100672.78;;;11.74;63.19
68616;BME280;57261;47.504;19.084;2022-12-22T00:22:31;100664.16;;;11.73;59.93
68616;BME280;57261;47.504;19.084;2022-12-22T00:25:50;100663.34;;;11.73;63.56
68616;BME280;57261;47.504;19.084;2022-12-22T00:29:12;100657.22;;;11.77;63.70
68616;BME280;57261;47.504;19.084;2022-12-22T00:32:35;100647.81;;;11.74;63.86
68616;BME280;57261;47.504;19.084;2022-12-22T00:35:54;100647.75;;;11.76;63.87
68616;BME280;57261;47.504;19.084;2022-12-22T00:39:13;100649.47;;;11.77;63.60
68616;BME280;57261;47.504;19.084;2022-12-22T00:42:33;100650.44;;;11.73;64.11
68616;BME280;57261;47.504;19.084;2022-12-22T00:45:52;100649.41;;;11.78;64.01
68616;BME280;57261;47.504;19.084;2022-12-22T00:49:11;100653.69;;;11.80;63.72
68616;BME280;57261;47.504;19.084;2022-12-22T00:52:31;100662.28;;;11.81;63.42
68616;BME280;57261;47.504;19.084;2022-12-22T00:55:51;100651.13;;;11.79;63.77
68616;BME280;57261;47.504;19.084;2022-12-22T00:59:10;100657.06;;;11.82;64.10
68616;BME280;57261;47.504;19.084;2022-12-22T01:02:29;100643.31;;;11.82;63.70
68616;BME280;57261;47.504;19.084;2022-12-22T01:05:48;100641.41;;;11.90;63.85
68616;BME280;57261;47.504;19.084;2022-12-22T01:09:08;100645.75;;;11.88;63.19
68616;BME280;57261;47.504;19.084;2022-12-22T01:12:28;100633.94;;;11.78;63.30
68616;BME280;57261;47.504;19.084;2022-12-22T01:15:48;100604.78;;;11.73;63.76
68616;BME280;57261;47.504;19.084;2022-12-22T01:19:07;100637.16;;;11.87;63.31
68616;BME280;57261;47.504;19.084;2022-12-22T01:22:27;100638.06;;;11.86;63.52
68616;BME280;57261;47.504;19.084;2022-12-22T01:25:46;100628.44;;;11.91;63.83
68616;BME280;57261;47.504;19.084;2022-12-22T01:29:05;100602.09;;;11.77;63.59
68616;BME280;57261;47.504;19.084;2022-12-22T01:32:25;100621.63;;;11.89;63.54
68616;BME280;57261;47.504;19.084;2022-12-22T01:35:43;100607.91;;;11.87;63.22
68616;BME280;57261;47.504;19.084;2022-12-22T01:39:04;100614.69;;;11.91;63.77
68616;BME280;57261;47.504;19.084;2022-12-22T01:42:23;100597.56;;;11.87;63.92
68616;BME280;57261;47.504;19.084;2022-12-22T01:45:43;100604.38;;;11.91;63.88
68616;BME280;57261;47.504;19.084;2022-12-22T01:49:02;100600.88;;;11.92;64.02
68616;BME280;57261;47.504;19.084;2022-12-22T01:52:25;100573.66;;;11.79;63.90
68616;BME280;57261;47.504;19.084;2022-12-22T01:55:46;100583.00;;;11.84;63.97
68616;BME280;57261;47.504;19.084;2022-12-22T01:59:05;100611.34;;;11.86;64.29
68616;BME280;57261;47.504;19.084;2022-12-22T02:02:25;100595.06;;;11.84;63.93
68616;BME280;57261;47.504;19.084;2022-12-22T02:09:50;100603.59;;;11.87;64.12
68616;BME280;57261;47.504;19.084;2022-12-22T02:17:12;100596.63;;;11.91;64.05
68616;BME280;57261;47.504;19.084;2022-12-22T02:20:43;100590.63;;;11.89;63.90
68616;BME280;57261;47.504;19.084;2022-12-22T02:27:53;100588.06;;;11.89;63.81
68616;BME280;57261;47.504;19.084;2022-12-22T02:31:13;100591.38;;;11.94;63.60
68616;BME280;57261;47.504;19.084;2022-12-22T02:34:32;100595.56;;;11.98;63.86
68616;BME280;57261;47.504;19.084;2022-12-22T02:41:42;100588.75;;;11.95;62.55
68616;BME280;57261;47.504;19.084;2022-12-22T02:48:56;100588.78;;;11.94;64.18
68616;BME280;57261;47.504;19.084;2022-12-22T02:52:23;100575.06;;;11.92;63.98
68616;BME280;57261;47.504;19.084;2022-12-22T02:55:45;100576.09;;;11.85;63.96
68616;BME280;57261;47.504;19.084;2022-12-22T02:59:04;100588.84;;;11.92;64.01
68616;BME280;57261;47.504;19.084;2022-12-22T03:02:23;100588.06;;;11.89;63.68
68616;BME280;57261;47.504;19.084;2022-12-22T03:05:42;100598.22;;;11.95;63.33
68616;BME280;57261;47.504;19.084;2022-12-22T03:09:01;100583.97;;;11.79;64.61
68616;BME280;57261;47.504;19.084;2022-12-22T03:12:20;100587.38;;;11.81;64.64
68616;BME280;57261;47.504;19.084;2022-12-22T03:15:39;100592.34;;;11.90;64.07
68616;BME280;57261;47.504;19.084;2022-12-22T03:18:58;100583.56;;;11.97;63.95
68616;BME280;57261;47.504;19.084;2022-12-22T03:22:18;100576.75;;;11.94;63.78
68616;BME280;57261;47.504;19.084;2022-12-22T03:25:36;100557.84;;;11.20;51.80
68616;BME280;57261;47.504;19.084;2022-12-22T03:28:55;100574.31;;;11.52;64.57
68616;BME280;57261;47.504;19.084;2022-12-22T03:31:56;100572.25;;;11.68;64.54
68616;BME280;57261;47.504;19.084;2022-12-22T03:34:56;100570.28;;;11.77;64.16
68616;BME280;57261;47.504;19.084;2022-12-22T03:37:56;100566.53;;;11.88;64.19
68616;BME280;57261;47.504;19.084;2022-12-22T03:41:02;100548.44;;;11.90;63.85
68616;BME280;57261;47.504;19.084;2022-12-22T03:44:03;100543.03;;;11.99;64.03
68616;BME280;57261;47.504;19.084;2022-12-22T03:47:22;100548.22;;;11.97;63.48
68616;BME280;57261;47.504;19.084;2022-12-22T03:50:22;100541.63;;;11.86;63.39
68616;BME280;57261;47.504;19.084;2022-12-22T03:53:23;100550.88;;;11.96;63.89
68616;BME280;57261;47.504;19.084;2022-12-22T03:56:23;100544.00;;;11.95;63.71
68616;BME280;57261;47.504;19.084;2022-12-22T03:59:24;100556.03;;;11.96;63.58
68616;BME280;57261;47.504;19.084;2022-12-22T04:02:24;100560.38;;;11.94;64.07
68616;BME280;57261;47.504;19.084;2022-12-22T04:05:25;100553.41;;;11.97;64.08
68616;BME280;57261;47.504;19.084;2022-12-22T04:08:25;100543.44;;;11.84;63.23
68616;BME280;57261;47.504;19.084;2022-12-22T04:11:26;100556.97;;;11.93;64.29
68616;BME280;57261;47.504;19.084;2022-12-22T04:14:58;100559.56;;;11.92;64.04
68616;BME280;57261;47.504;19.084;2022-12-22T04:18:02;100569.81;;;11.95;64.17
68616;BME280;57261;47.504;19.084;2022-12-22T04:21:02;100562.91;;;11.95;64.18
68616;BME280;57261;47.504;19.084;2022-12-22T04:24:03;100567.13;;;11.99;64.00
68616;BME280;57261;47.504;19.084;2022-12-22T04:27:03;100560.22;;;12.00;63.99
68616;BME280;57261;47.504;19.084;2022-12-22T04:30:05;100568.13;;;11.94;63.85
68616;BME280;57261;47.504;19.084;2022-12-22T04:33:06;100565.97;;;11.77;64.41
68616;BME280;57261;47.504;19.084;2022-12-22T04:36:07;100564.97;;;11.81;64.19
68616;BME280;57261;47.504;19.084;2022-12-22T04:39:08;100555.22;;;11.94;64.12
68616;BME280;57261;47.504;19.084;2022-12-22T04:42:09;100556.91;;;11.95;64.17
68616;BME280;57261;47.504;19.084;2022-12-22T04:45:09;100556.72;;;12.02;64.12
68616;BME280;57261;47.504;19.084;2022-12-22T04:48:10;100561.09;;;12.00;63.89
68616;BME280;57261;47.504;19.084;2022-12-22T04:51:11;100557.59;;;12.01;64.14
68616;BME280;57261;47.504;19.084;2022-12-22T04:54:11;100532.78;;;11.96;63.88
68616;BME280;57261;47.504;19.084;2022-12-22T04:57:13;100554.00;;;12.07;63.55
68616;BME280;57261;47.504;19.084;2022-12-22T05:00:14;100548.94;;;12.04;63.85
68616;BME280;57261;47.504;19.084;2022-12-22T05:03:16;100530.97;;;11.99;63.87
68616;BME280;57261;47.504;19.084;2022-12-22T05:06:35;100557.31;;;12.13;63.61
68616;BME280;57261;47.504;19.084;2022-12-22T05:09:35;100543.69;;;12.07;63.93
68616;BME280;57261;47.504;19.084;2022-12-22T05:12:36;100531.03;;;11.96;63.90
68616;BME280;57261;47.504;19.084;2022-12-22T05:16:06;100550.53;;;12.08;63.92
68616;BME280;57261;47.504;19.084;2022-12-22T05:19:07;100552.28;;;12.07;63.47
68616;BME280;57261;47.504;19.084;2022-12-22T05:22:07;100540.31;;;12.03;63.83
68616;BME280;57261;47.504;19.084;2022-12-22T05:25:10;100544.72;;;12.00;63.61
68616;BME280;57261;47.504;19.084;2022-12-22T05:28:11;100548.94;;;12.04;64.11
68616;BME280;57261;47.504;19.084;2022-12-22T05:31:18;100555.88;;;12.02;63.79
68616;BME280;57261;47.504;19.084;2022-12-22T05:34:21;100545.44;;;12.05;64.23
68616;BME280;57261;47.504;19.084;2022-12-22T05:37:21;100554.13;;;12.02;64.07
68616;BME280;57261;47.504;19.084;2022-12-22T05:40:21;100550.75;;;11.29;61.84
68616;BME280;57261;47.504;19.084;2022-12-22T05:43:22;100546.22;;;11.39;60.88
68616;BME280;57261;47.504;19.084;2022-12-22T05:46:22;100543.31;;;11.54;64.92
68616;BME280;57261;47.504;19.084;2022-12-22T05:49:23;100536.75;;;11.76;64.68
68616;BME280;57261;47.504;19.084;2022-12-22T05:52:25;100541.69;;;11.84;65.08
68616;BME280;57261;47.504;19.084;2022-12-22T05:55:27;100537.22;;;11.91;64.61
68616;BME280;57261;47.504;19.084;2022-12-22T05:58:27;100545.75;;;11.94;64.98
68616;BME280;57261;47.504;19.084;2022-12-22T06:01:28;100542.28;;;11.94;64.54
68616;BME280;57261;47.504;19.084;2022-12-22T06:04:28;100547.31;;;12.00;64.34
68616;BME280;57261;47.504;19.084;2022-12-22T06:07:29;100547.25;;;12.01;64.11
68616;BME280;57261;47.504;19.084;2022-12-22T06:10:29;100549.84;;;12.01;64.55
68616;BME280;57261;47.504;19.084;2022-12-22T06:13:30;100555.06;;;12.00;64.46
68616;BME280;57261;47.504;19.084;2022-12-22T06:16:31;100549.78;;;12.04;64.49
68616;BME280;57261;47.504;19.084;2022-12-22T06:19:31;100544.81;;;11.97;64.66
68616;BME280;57261;47.504;19.084;2022-12-22T06:22:33;100553.47;;;11.23;55.57
68616;BME280;57261;47.504;19.084;2022-12-22T06:25:33;100561.75;;;11.36;65.84
68616;BME280;57261;47.504;19.084;2022-12-22T06:28:34;100551.94;;;11.53;65.54
68616;BME280;57261;47.504;19.084;2022-12-22T06:31:34;100562.75;;;11.68;65.25
68616;BME280;57261;47.504;19.084;2022-12-22T06:34:35;100564.03;;;11.85;64.87
68616;BME280;57261;47.504;19.084;2022-12-22T06:37:35;100563.16;;;11.86;64.79
68616;BME280;57261;47.504;19.084;2022-12-22T06:40:36;100553.66;;;11.87;64.94
68616;BME280;57261;47.504;19.084;2022-12-22T06:43:38;100561.25;;;11.93;64.98
68616;BME280;57261;47.504;19.084;2022-12-22T06:46:38;100557.75;;;11.95;64.83
68616;BME280;57261;47.504;19.084;2022-12-22T06:49:39;100565.47;;;11.97;64.76
68616;BME280;57261;47.504;19.084;2022-12-22T06:52:41;100569.13;;;11.88;65.10
68616;BME280;57261;47.504;19.084;2022-12-22T06:55:41;100573.28;;;11.94;64.96
68616;BME280;57261;47.504;19.084;2022-12-22T06:58:42;100561.41;;;11.87;64.89
68616;BME280;57261;47.504;19.084;2022-12-22T07:01:42;100572.31;;;11.99;63.44
68616;BME280;57261;47.504;19.084;2022-12-22T07:04:43;100555.47;;;11.83;65.03
68616;BME280;57261;47.504;19.084;2022-12-22T07:07:44;100569.72;;;11.98;64.79
68616;BME280;57261;47.504;19.084;2022-12-22T07:10:45;100563.81;;;11.94;64.92
68616;BME280;57261;47.504;19.084;2022-12-22T07:13:57;100569.22;;;11.85;65.20
68616;BME280;57261;47.504;19.084;2022-12-22T07:16:57;100563.06;;;11.89;65.20
68616;BME280;57261;47.504;19.084;2022-12-22T07:19:58;100557.75;;;11.95;65.07
68616;BME280;57261;47.504;19.084;2022-12-22T07:23:00;100570.50;;;12.01;65.03
68616;BME280;57261;47.504;19.084;2022-12-22T07:26:01;100566.22;;;12.02;64.97
68616;BME280;57261;47.504;19.084;2022-12-22T07:29:02;100560.16;;;12.01;59.74
68616;BME280;57261;47.504;19.084;2022-12-22T07:32:03;100561.09;;;11.99;65.06
68616;BME280;57261;47.504;19.084;2022-12-22T07:35:03;100568.84;;;11.99;65.17
68616;BME280;57261;47.504;19.084;2022-12-22T07:38:04;100566.25;;;11.99;65.04
68616;BME280;57261;47.504;19.084;2022-12-22T07:41:06;100567.84;;;12.04;64.46
68616;BME280;57261;47.504;19.084;2022-12-22T07:44:27;100574.84;;;12.01;64.69
68616;BME280;57261;47.504;19.084;2022-12-22T07:47:29;100575.59;;;12.04;64.92
68616;BME280;57261;47.504;19.084;2022-12-22T07:50:29;100583.31;;;12.06;64.60
68616;BME280;57261;47.504;19.084;2022-12-22T07:53:33;100587.63;;;12.05;64.76
68616;BME280;57261;47.504;19.084;2022-12-22T07:56:33;100595.28;;;12.08;64.89
68616;BME280;57261;47.504;19.084;2022-12-22T07:59:34;100592.72;;;12.08;64.62
68616;BME280;57261;47.504;19.084;2022-12-22T08:02:35;100576.28;;;12.12;64.37
68616;BME280;57261;47.504;19.084;2022-12-22T08:05:36;100585.00;;;12.07;65.04
68616;BME280;57261;47.504;19.084;2022-12-22T08:08:37;100574.78;;;12.04;64.75
68616;BME280;57261;47.504;19.084;2022-12-22T08:11:37;100586.66;;;12.11;64.70
68616;BME280;57261;47.504;19.084;2022-12-22T08:14:38;100574.69;;;12.07;64.84
68616;BME280;57261;47.504;19.084;2022-12-22T08:17:39;100582.38;;;12.08;64.41
68616;BME280;57261;47.504;19.084;2022-12-22T08:20:39;100586.56;;;12.14;64.38
68616;BME280;57261;47.504;19.084;2022-12-22T08:23:40;100588.25;;;12.15;64.49
68616;BME280;57261;47.504;19.084;2022-12-22T08:26:42;100513.47;;;11.77;64.63
68616;BME280;57261;47.504;19.084;2022-12-22T08:29:48;100587.25;;;12.20;64.05
68616;BME280;57261;47.504;19.084;2022-12-22T08:32:50;100583.81;;;12.20;64.32
68616;BME280;57261;47.504;19.084;2022-12-22T08:35:51;100583.66;;;12.26;64.33
68616;BME280;57261;47.504;19.084;2022-12-22T08:38:51;100569.91;;;12.25;64.11
68616;BME280;57261;47.504;19.084;2022-12-22T08:41:52;100573.19;;;12.30;63.89
68616;BME280;57261;47.504;19.084;2022-12-22T08:44:53;100574.28;;;12.22;64.32
68616;BME280;57261;47.504;19.084;2022-12-22T08:47:55;100587.09;;;12.26;64.47
68616;BME280;57261;47.504;19.084;2022-12-22T08:50:55;100581.47;;;12.11;64.33
68616;BME280;57261;47.504;19.084;2022-12-22T08:53:56;100583.03;;;12.18;64.02
68616;BME280;57261;47.504;19.084;2022-12-22T08:57:01;100575.91;;;12.26;64.27
68616;BME280;57261;47.504;19.084;2022-12-22T09:00:04;100584.53;;;12.25;64.13
68616;BME280;57261;47.504;19.084;2022-12-22T09:03:05;100542.84;;;12.05;64.48
68616;BME280;57261;47.504;19.084;2022-12-22T09:06:06;100583.66;;;12.26;64.45
68616;BME280;57261;47.504;19.084;2022-12-22T09:09:08;100562.03;;;12.30;64.20
68616;BME280;57261;47.504;19.084;2022-12-22T09:12:09;100558.03;;;12.18;62.33
68616;BME280;57261;47.504;19.084;2022-12-22T09:15:10;100558.34;;;12.05;58.84
68616;BME280;57261;47.504;19.084;2022-12-22T09:18:11;100554.91;;;11.71;63.18
68616;BME280;57261;47.504;19.084;2022-12-22T09:21:11;100558.34;;;12.05;65.01
68616;BME280;57261;47.504;19.084;2022-12-22T09:24:15;100537.56;;;12.11;64.81
68616;BME280;57261;47.504;19.084;2022-12-22T09:27:17;100549.16;;;12.27;64.24
68616;BME280;57261;47.504;19.084;2022-12-22T09:30:18;100544.78;;;12.30;63.90
68616;BME280;57261;47.504;19.084;2022-12-22T09:33:18;100451.19;;;11.89;63.99
68616;BME280;57261;47.504;19.084;2022-12-22T09:36:23;100524.91;;;12.32;64.15
68616;BME280;57261;47.504;19.084;2022-12-22T09:39:23;100531.59;;;12.39;63.99
68616;BME280;57261;47.504;19.084;2022-12-22T09:42:24;100531.78;;;12.33;63.88
68616;BME280;57261;47.504;19.084;2022-12-22T09:45:25;100540.25;;;12.38;63.79
68616;BME280;57261;47.504;19.084;2022-12-22T09:48:33;100521.16;;;12.44;63.60
68616;BME280;57261;47.504;19.084;2022-12-22T09:51:40;100503.28;;;11.71;63.88
68616;BME280;57261;47.504;19.084;2022-12-22T09:54:41;100532.19;;;12.18;64.04
68616;BME280;57261;47.504;19.084;2022-12-22T09:57:42;100534.72;;;12.20;64.18
68616;BME280;57261;47.504;19.084;2022-12-22T10:00:47;100524.53;;;12.14;61.67
68616;BME280;57261;47.504;19.084;2022-12-22T10:03:53;100521.72;;;12.23;64.13
68616;BME280;57261;47.504;19.084;2022-12-22T10:07:05;100510.75;;;12.15;62.10
68616;BME280;57261;47.504;19.084;2022-12-22T10:13:24;100515.97;;;12.13;64.54
68616;BME280;57261;47.504;19.084;2022-12-22T10:16:27;100482.50;;;12.09;64.38
68616;BME280;57261;47.504;19.084;2022-12-22T10:19:28;100494.25;;;12.20;64.19
68616;BME280;57261;47.504;19.084;2022-12-22T10:22:34;100497.25;;;12.36;64.03
68616;BME280;57261;47.504;19.084;2022-12-22T10:29:32;100496.38;;;12.37;63.80
68616;BME280;57261;47.504;19.084;2022-12-22T10:32:33;100494.31;;;12.48;63.39
68616;BME280;57261;47.504;19.084;2022-12-22T10:35:54;100490.66;;;12.54;63.23
68616;BME280;57261;47.504;19.084;2022-12-22T10:38:59;100467.06;;;12.38;63.75
68616;BME280;57261;47.504;19.084;2022-12-22T10:42:07;100476.03;;;12.53;63.24
68616;BME280;57261;47.504;19.084;2022-12-22T10:45:19;100475.34;;;12.49;63.08
68616;BME280;57261;47.504;19.084;2022-12-22T10:48:29;100476.84;;;12.55;63.29
68616;BME280;57261;47.504;19.084;2022-12-22T10:51:30;100453.41;;;12.61;63.12
68616;BME280;57261;47.504;19.084;2022-12-22T10:54:32;100450.69;;;12.66;63.06
68616;BME280;57261;47.504;19.084;2022-12-22T10:57:35;100437.88;;;12.61;62.95
68616;BME280;57261;47.504;19.084;2022-12-22T11:08:30;100457.31;;;12.46;63.71
68616;BME280;57261;47.504;19.084;2022-12-22T11:11:37;100450.38;;;12.48;63.74
68616;BME280;57261;47.504;19.084;2022-12-22T11:15:09;100464.88;;;12.51;63.81
68616;BME280;57261;47.504;19.084;2022-12-22T11:25:06;100445.25;;;12.46;63.46
68616;BME280;57261;47.504;19.084;2022-12-22T11:38:18;100426.84;;;12.56;62.98
68616;BME280;57261;47.504;19.084;2022-12-22T11:45:26;100450.94;;;12.28;63.72
68616;BME280;57261;47.504;19.084;2022-12-22T11:48:57;100447.09;;;12.43;63.29
68616;BME280;57261;47.504;19.084;2022-12-22T11:55:32;100454.13;;;12.38;64.00
68616;BME280;57261;47.504;19.084;2022-12-22T12:11:51;100435.00;;;12.13;64.20
68616;BME280;57261;47.504;19.084;2022-12-22T12:19:01;100448.84;;;11.47;65.19
68616;BME280;57261;47.504;19.084;2022-12-22T12:22:04;100417.38;;;11.66;64.48
68616;BME280;57261;47.504;19.084;2022-12-22T12:31:16;100421.50;;;12.34;63.64
68616;BME280;57261;47.504;19.084;2022-12-22T12:34:23;100425.53;;;12.42;63.43
68616;BME280;57261;47.504;19.084;2022-12-22T12:37:36;100439.78;;;12.55;63.45
68616;BME280;57261;47.504;19.084;2022-12-22T12:40:54;100474.91;;;12.03;56.43
68616;BME280;57261;47.504;19.084;2022-12-22T12:44:01;100471.31;;;11.07;54.02
68616;BME280;57261;47.504;19.084;2022-12-22T12:47:28;100459.59;;;11.64;64.88
68616;BME280;57261;47.504;19.084;2022-12-22T12:50:33;100451.91;;;11.94;63.90
68616;BME280;57261;47.504;19.084;2022-12-22T12:53:35;100468.56;;;12.14;64.24
68616;BME280;57261;47.504;19.084;2022-12-22T13:10:06;100414.63;;;12.33;63.83
68616;BME280;57261;47.504;19.084;2022-12-22T13:16:22;100438.03;;;12.57;63.42
68616;BME280;57261;47.504;19.084;2022-12-22T13:19:26;100428.56;;;12.56;63.32
68616;BME280;57261;47.504;19.084;2022-12-22T13:22:28;100427.56;;;12.61;63.19
68616;BME280;57261;47.504;19.084;2022-12-22T13:25:46;100370.25;;;12.48;63.06
68616;BME280;57261;47.504;19.084;2022-12-22T13:28:57;100407.69;;;12.63;62.90
68616;BME280;57261;47.504;19.084;2022-12-22T13:35:43;100410.06;;;12.69;63.29
68616;BME280;57261;47.504;19.084;2022-12-22T13:38:45;100388.00;;;12.58;62.79
68616;BME280;57261;47.504;19.084;2022-12-22T13:41:48;100352.84;;;12.52;63.01
68616;BME280;57261;47.504;19.084;2022-12-22T13:44:50;100360.19;;;12.66;62.83
68616;BME280;57261;47.504;19.084;2022-12-22T13:47:51;100367.88;;;12.67;62.39
68616;BME280;57261;47.504;19.084;2022-12-22T13:50:58;100356.94;;;12.59;63.17
68616;BME280;57261;47.504;19.084;2022-12-22T13:54:01;100360.28;;;12.63;62.95
68616;BME280;57261;47.504;19.084;2022-12-22T13:57:04;100364.63;;;12.62;63.65
68616;BME280;57261;47.504;19.084;2022-12-22T14:00:17;100377.59;;;12.61;63.09
68616;BME280;57261;47.504;19.084;2022-12-22T14:03:18;100332.63;;;12.65;63.27
68616;BME280;57261;47.504;19.084;2022-12-22T14:06:35;100347.25;;;12.66;62.99
68616;BME280;57261;47.504;19.084;2022-12-22T14:09:36;100349.75;;;12.42;62.73
68616;BME280;57261;47.504;19.084;2022-12-22T14:12:46;100371.81;;;12.51;63.73
68616;BME280;57261;47.504;19.084;2022-12-22T14:15:58;100359.72;;;12.53;63.82
68616;BME280;57261;47.504;19.084;2022-12-22T14:18:59;100383.41;;;12.40;57.98
68616;BME280;57261;47.504;19.084;2022-12-22T14:22:10;100345.03;;;12.27;64.04
68616;BME280;57261;47.504;19.084;2022-12-22T14:31:23;100371.25;;;12.44;64.32
68616;BME280;57261;47.504;19.084;2022-12-22T14:34:29;100367.78;;;12.16;63.55
68616;BME280;57261;47.504;19.084;2022-12-22T14:37:30;100390.31;;;12.11;62.64
68616;BME280;57261;47.504;19.084;2022-12-22T14:40:36;100402.81;;;11.64;60.90
68616;BME280;57261;47.504;19.084;2022-12-22T14:43:37;100424.31;;;10.95;57.35
68616;BME280;57261;47.504;19.084;2022-12-22T14:46:39;100428.63;;;11.30;66.04
68616;BME280;57261;47.504;19.084;2022-12-22T14:50:13;100413.91;;;11.67;66.19
68616;BME280;57261;47.504;19.084;2022-12-22T14:53:22;100413.25;;;11.61;61.93
68616;BME280;57261;47.504;19.084;2022-12-22T14:56:25;100415.19;;;11.50;64.77
68616;BME280;57261;47.504;19.084;2022-12-22T14:59:27;100405.13;;;11.39;63.27
68616;BME280;57261;47.504;19.084;2022-12-22T15:02:37;100401.59;;;11.77;66.08
68616;BME280;57261;47.504;19.084;2022-12-22T15:05:39;100381.63;;;11.53;62.30
68616;BME280;57261;47.504;19.084;2022-12-22T15:08:43;100380.84;;;11.14;63.19
68616;BME280;57261;47.504;19.084;2022-12-22T15:11:47;100347.06;;;10.90;59.66
68616;BME280;57261;47.504;19.084;2022-12-22T15:14:48;100375.13;;;11.02;62.43
68616;BME280;57261;47.504;19.084;2022-12-22T15:17:51;100363.38;;;10.56;65.82
68616;BME280;57261;47.504;19.084;2022-12-22T15:20:53;100364.31;;;10.88;60.64
68616;BME280;57261;47.504;19.084;2022-12-22T15:23:57;100373.59;;;10.21;60.66
68616;BME280;57261;47.504;19.084;2022-12-22T15:26:58;100372.97;;;10.49;63.68
68616;BME280;57261;47.504;19.084;2022-12-22T15:30:01;100374.78;;;10.05;60.53
68616;BME280;57261;47.504;19.084;2022-12-22T15:33:02;100364.22;;;9.76;61.37
68616;BME280;57261;47.504;19.084;2022-12-22T15:36:04;100362.00;;;10.40;65.00
68616;BME280;57261;47.504;19.084;2022-12-22T15:39:12;100358.88;;;10.99;68.29
68616;BME280;57261;47.504;19.084;2022-12-22T15:42:13;100351.16;;;11.32;67.47
68616;BME280;57261;47.504;19.084;2022-12-22T15:45:14;100339.97;;;11.33;65.77
68616;BME280;57261;47.504;19.084;2022-12-22T15:48:24;100333.72;;;11.41;66.34
68616;BME280;57261;47.504;19.084;2022-12-22T15:51:28;100330.41;;;11.36;65.81
68616;BME280;57261;47.504;19.084;2022-12-22T15:54:30;100313.56;;;11.55;64.81
68616;BME280;57261;47.504;19.084;2022-12-22T15:57:32;100320.16;;;11.65;66.29
68616;BME280;57261;47.504;19.084;2022-12-22T16:00:38;100304.59;;;11.04;60.08
68616;BME280;57261;47.504;19.084;2022-12-22T16:03:38;100332.56;;;11.53;67.08
68616;BME280;57261;47.504;19.084;2022-12-22T16:06:39;100255.72;;;10.67;60.86
68616;BME280;57261;47.504;19.084;2022-12-22T16:09:43;100311.66;;;9.86;62.30
68616;BME280;57261;47.504;19.084;2022-12-22T16:12:48;100332.06;;;10.34;64.41
68616;BME280;57261;47.504;19.084;2022-12-22T16:15:55;100336.50;;;10.66;67.59
68616;BME280;57261;47.504;19.084;2022-12-22T16:18:56;100337.22;;;10.71;62.16
68616;BME280;57261;47.504;19.084;2022-12-22T16:21:56;100353.47;;;10.39;61.80
68616;BME280;57261;47.504;19.084;2022-12-22T16:24:57;100341.97;;;10.16;64.92
68616;BME280;57261;47.504;19.084;2022-12-22T16:27:58;100355.56;;;10.60;66.66
68616;BME280;57261;47.504;19.084;2022-12-22T16:30:59;100373.72;;;10.91;67.64
68616;BME280;57261;47.504;19.084;2022-12-22T16:34:00;100377.47;;;11.12;68.19
68616;BME280;57261;47.504;19.084;2022-12-22T16:37:00;100379.56;;;10.97;63.05
68616;BME280;57261;47.504;19.084;2022-12-22T16:40:01;100368.84;;;10.79;61.88
68616;BME280;57261;47.504;19.084;2022-12-22T16:43:16;100279.78;;;9.52;62.00
68616;BME280;57261;47.504;19.084;2022-12-22T16:46:20;100378.75;;;9.77;62.86
68616;BME280;57261;47.504;19.084;2022-12-22T16:49:21;100377.88;;;9.80;63.44
68616;BME280;57261;47.504;19.084;2022-12-22T16:52:25;100373.00;;;10.10;66.34
68616;BME280;57261;47.504;19.084;2022-12-22T16:55:27;100377.56;;;10.35;69.44
68616;BME280;57261;47.504;19.084;2022-12-22T16:58:28;100355.97;;;10.03;62.94
68616;BME280;57261;47.504;19.084;2022-12-22T17:04:35;100364.78;;;10.32;64.77
68616;BME280;57261;47.504;19.084;2022-12-22T17:07:36;100383.53;;;10.37;64.47
68616;BME280;57261;47.504;19.084;2022-12-22T17:10:36;100370.16;;;9.78;63.39
68616;BME280;57261;47.504;19.084;2022-12-22T17:13:40;100373.56;;;9.37;64.97
68616;BME280;57261;47.504;19.084;2022-12-22T17:16:40;100353.38;;;9.13;65.41
68616;BME280;57261;47.504;19.084;2022-12-22T17:19:40;100355.84;;;9.65;68.50
68616;BME280;57261;47.504;19.084;2022-12-22T17:23:01;100365.47;;;9.08;66.23
68616;BME280;57261;47.504;19.084;2022-12-22T17:26:05;100350.44;;;9.34;65.62
68616;BME280;57261;47.504;19.084;2022-12-22T17:29:15;100345.16;;;9.41;65.36
68616;BME280;57261;47.504;19.084;2022-12-22T17:32:21;100344.75;;;9.63;66.77
68616;BME280;57261;47.504;19.084;2022-12-22T17:35:24;100343.28;;;9.91;65.81
68616;BME280;57261;47.504;19.084;2022-12-22T17:38:25;100350.97;;;9.94;67.94
68616;BME280;57261;47.504;19.084;2022-12-22T17:41:28;100353.03;;;10.57;70.33
68616;BME280;57261;47.504;19.084;2022-12-22T17:44:28;100319.84;;;10.79;69.57
68616;BME280;57261;47.504;19.084;2022-12-22T17:47:29;100360.91;;;10.88;64.72
68616;BME280;57261;47.504;19.084;2022-12-22T17:50:29;100359.97;;;10.90;67.08
68616;BME280;57261;47.504;19.084;2022-12-22T17:53:30;100335.44;;;10.39;64.05
68616;BME280;57261;47.504;19.084;2022-12-22T17:56:31;100359.84;;;10.21;64.00